createdAt,value
2023-05-02T00:00:56.386Z,14.10
2023-05-02T00:03:23.617Z,14.10
2023-05-02T00:05:50.520Z,14.05
2023-05-02T00:08:17.259Z,14.02
2023-05-02T00:10:43.984Z,14.02
2023-05-02T00:13:11.081Z,13.97
2023-05-02T00:15:37.868Z,13.94
2023-05-02T00:18:04.644Z,13.91
2023-05-02T00:20:31.569Z,13.89
2023-05-02T00:22:58.303Z,13.86
2023-05-02T00:25:25.149Z,13.82
2023-05-02T00:27:52.953Z,13.80
2023-05-02T00:30:21.162Z,13.77
2023-05-02T00:32:48.141Z,13.72
2023-05-02T00:35:14.961Z,13.69
2023-05-02T00:37:41.815Z,13.67
2023-05-02T00:40:09.028Z,13.66
2023-05-02T00:42:36.563Z,13.61
2023-05-02T00:45:06.653Z,13.59
2023-05-02T00:47:33.982Z,13.56
2023-05-02T00:50:01.722Z,13.50
2023-05-02T00:52:29.103Z,13.49
2023-05-02T00:54:56.187Z,13.47
2023-05-02T00:57:23.189Z,13.41
2023-05-02T00:59:51.135Z,13.40
2023-05-02T01:02:33.033Z,13.37
2023-05-02T01:05:17.813Z,13.34
2023-05-02T01:07:53.503Z,13.31
2023-05-02T01:10:20.197Z,13.31
2023-05-02T01:13:29.340Z,13.28
2023-05-02T01:15:59.615Z,13.25
2023-05-02T01:18:32.528Z,13.21
2023-05-02T01:21:03.184Z,13.20
2023-05-02T01:23:43.262Z,13.18
2023-05-02T01:26:35.039Z,13.13
2023-05-02T01:29:04.024Z,13.12
2023-05-02T01:31:39.882Z,13.12
2023-05-02T01:34:10.397Z,13.09
2023-05-02T01:36:43.045Z,13.06
2023-05-02T01:39:13.456Z,13.05
2023-05-02T01:41:41.867Z,13.02
2023-05-02T01:44:10.440Z,13.01
2023-05-02T01:46:42.182Z,12.98
2023-05-02T01:49:09.390Z,12.95
2023-05-02T01:51:40.825Z,12.93
2023-05-02T01:54:09.061Z,12.88
2023-05-02T01:56:38.490Z,12.87
2023-05-02T01:59:10.641Z,12.87
2023-05-02T02:01:39.692Z,12.83
2023-05-02T02:04:09.188Z,12.83
2023-05-02T02:06:36.371Z,12.82
2023-05-02T02:09:03.970Z,12.80
2023-05-02T02:11:53.592Z,12.76
2023-05-02T02:14:25.417Z,12.73
2023-05-02T02:16:56.259Z,12.72
2023-05-02T02:19:24.717Z,12.69
2023-05-02T02:21:53.694Z,12.67
2023-05-02T02:24:22.994Z,12.64
2023-05-02T02:26:50.905Z,12.59
2023-05-02T02:29:17.662Z,12.55
2023-05-02T02:31:44.410Z,12.54
2023-05-02T02:34:11.315Z,12.54
2023-05-02T02:37:13.807Z,12.52
2023-05-02T02:39:53.374Z,12.49
2023-05-02T02:42:31.854Z,12.49
2023-05-02T02:45:31.307Z,12.49
2023-05-02T02:48:28.036Z,12.46
2023-05-02T02:51:12.844Z,12.45
2023-05-02T02:54:25.956Z,12.41
2023-05-02T02:57:15.526Z,12.39
2023-05-02T02:59:59.726Z,12.38
2023-05-02T03:02:31.008Z,12.37
2023-05-02T03:04:58.645Z,12.37
2023-05-02T03:07:28.521Z,12.35
2023-05-02T03:09:55.560Z,12.35
2023-05-02T03:12:22.467Z,12.32
2023-05-02T03:14:49.595Z,12.32
2023-05-02T03:17:16.384Z,12.32
2023-05-02T03:19:43.107Z,12.31
2023-05-02T03:22:10.122Z,12.28
2023-05-02T03:24:37.264Z,12.27
2023-05-02T03:27:04.670Z,12.27
2023-05-02T03:29:31.532Z,12.25
2023-05-02T03:31:58.424Z,12.23
2023-05-02T03:34:25.733Z,12.21
2023-05-02T03:36:52.484Z,12.20
2023-05-02T03:39:19.253Z,12.20
2023-05-02T03:41:46.539Z,12.20
2023-05-02T03:44:13.743Z,12.18
2023-05-02T03:46:40.526Z,12.17
2023-05-02T03:49:07.351Z,12.16
2023-05-02T03:51:34.408Z,12.15
2023-05-02T03:54:02.808Z,12.16
2023-05-02T03:56:29.664Z,12.15
2023-05-02T03:58:56.470Z,12.13
2023-05-02T04:01:23.742Z,12.13
2023-05-02T04:03:52.345Z,12.12
2023-05-02T04:06:19.188Z,12.12
2023-05-02T04:08:45.996Z,12.15
2023-05-02T04:11:12.755Z,12.16
2023-05-02T04:13:39.588Z,12.18
2023-05-02T04:16:06.600Z,12.17
2023-05-02T04:18:33.376Z,12.17
2023-05-02T04:21:00.362Z,12.17
2023-05-02T04:23:27.126Z,12.24
2023-05-02T04:25:56.947Z,12.27
2023-05-02T04:28:24.146Z,12.29
2023-05-02T04:30:51.603Z,12.32
2023-05-02T04:33:18.686Z,12.35
2023-05-02T04:35:46.154Z,12.37
2023-05-02T04:38:12.988Z,12.40
2023-05-02T04:40:40.205Z,12.42
2023-05-02T04:43:07.633Z,12.44
2023-05-02T04:45:37.470Z,12.47
2023-05-02T04:48:04.902Z,12.49
2023-05-02T04:50:32.490Z,12.51
2023-05-02T04:52:59.588Z,12.53
2023-05-02T04:55:26.486Z,12.55
2023-05-02T04:57:53.276Z,12.56
2023-05-02T05:00:20.285Z,12.58
2023-05-02T05:02:47.124Z,12.62
2023-05-02T05:05:14.113Z,12.65
2023-05-02T05:07:41.071Z,12.70
2023-05-02T05:10:08.695Z,12.72
2023-05-02T05:12:35.472Z,12.78
2023-05-02T05:15:02.284Z,12.82
2023-05-02T05:17:29.078Z,12.86
2023-05-02T05:19:55.932Z,12.92
2023-05-02T05:22:22.908Z,12.99
2023-05-02T05:24:56.217Z,13.04
2023-05-02T05:27:23.038Z,13.09
2023-05-02T05:29:50.182Z,13.14
2023-05-02T05:32:17.005Z,13.19
2023-05-02T05:34:43.790Z,13.24
2023-05-02T05:37:10.807Z,13.28
2023-05-02T05:39:38.010Z,13.33
2023-05-02T05:42:06.052Z,13.38
2023-05-02T05:44:32.815Z,13.41
2023-05-02T05:46:59.635Z,13.46
2023-05-02T05:49:26.404Z,13.48
2023-05-02T05:51:53.178Z,13.51
2023-05-02T05:54:19.920Z,13.55
2023-05-02T05:56:47.036Z,13.58
2023-05-02T05:59:14.170Z,13.61
2023-05-02T06:01:41.704Z,13.65
2023-05-02T06:04:08.678Z,13.68
2023-05-02T06:06:35.689Z,13.70
2023-05-02T06:09:02.640Z,13.73
2023-05-02T06:11:29.502Z,13.76
2023-05-02T06:13:56.358Z,13.82
2023-05-02T06:16:23.347Z,13.86
2023-05-02T06:18:54.126Z,13.91
2023-05-02T06:21:20.998Z,13.97
2023-05-02T06:26:32.642Z,14.06
2023-05-02T06:28:59.385Z,14.13
2023-05-02T06:31:26.151Z,14.20
2023-05-02T06:33:52.955Z,14.27
2023-05-02T06:36:19.708Z,14.34
2023-05-02T06:38:46.556Z,14.41
2023-05-02T06:41:17.304Z,14.49
2023-05-02T06:43:44.891Z,14.55
2023-05-02T06:46:11.656Z,14.61
2023-05-02T06:48:38.681Z,14.69
2023-05-02T06:51:05.470Z,14.74
2023-05-02T06:53:33.272Z,14.81
2023-05-02T06:56:00.376Z,14.88
2023-05-02T06:58:27.202Z,14.94
2023-05-02T07:00:54.070Z,15.00
2023-05-02T07:03:20.906Z,15.05
2023-05-02T07:05:47.723Z,15.12
2023-05-02T07:08:14.467Z,15.18
2023-05-02T07:10:41.347Z,15.23
2023-05-02T07:13:08.034Z,15.29
2023-05-02T07:15:34.963Z,15.34
2023-05-02T07:18:02.211Z,15.40
2023-05-02T07:20:29.054Z,15.46
2023-05-02T07:22:56.234Z,15.51
2023-05-02T07:25:23.048Z,15.56
2023-05-02T07:27:49.832Z,15.61
2023-05-02T07:30:16.689Z,15.65
2023-05-02T07:32:43.472Z,15.68
2023-05-02T07:35:10.250Z,15.71
2023-05-02T07:37:37.130Z,15.75
2023-05-02T07:40:04.719Z,15.78
2023-05-02T07:42:31.845Z,15.81
2023-05-02T07:44:59.997Z,15.84
2023-05-02T07:47:27.218Z,15.88
2023-05-02T07:49:55.193Z,15.89
2023-05-02T07:52:22.446Z,15.92
2023-05-02T07:54:50.108Z,15.95
2023-05-02T07:57:17.526Z,15.95
2023-05-02T07:59:44.374Z,15.99
2023-05-02T08:02:13.759Z,16.00
2023-05-02T08:04:41.236Z,16.02
2023-05-02T08:07:08.185Z,16.05
2023-05-02T08:09:35.120Z,16.08
2023-05-02T08:12:03.462Z,16.11
2023-05-02T08:14:33.680Z,16.14
2023-05-02T08:17:01.067Z,16.18
2023-05-02T08:19:28.047Z,16.22
2023-05-02T08:21:55.163Z,16.26
2023-05-02T08:24:22.586Z,16.29
2023-05-02T08:26:49.369Z,16.33
2023-05-02T08:29:16.272Z,16.35
2023-05-02T08:31:43.321Z,16.37
2023-05-02T08:34:10.139Z,16.40
2023-05-02T08:36:37.421Z,16.44
2023-05-02T08:39:04.358Z,16.45
2023-05-02T08:41:31.482Z,16.47
2023-05-02T08:44:00.028Z,16.50
2023-05-02T08:46:27.337Z,16.54
2023-05-02T08:48:58.911Z,16.56
2023-05-02T08:51:29.018Z,16.59
2023-05-02T08:53:57.720Z,16.64
2023-05-02T08:56:25.379Z,16.68
2023-05-02T08:58:52.350Z,16.73
2023-05-02T09:01:23.059Z,16.77
2023-05-02T09:03:50.572Z,16.80
2023-05-02T09:06:19.260Z,16.86
2023-05-02T09:08:50.866Z,16.92
2023-05-02T09:11:18.285Z,16.97
2023-05-02T09:13:52.322Z,17.03
2023-05-02T09:16:25.485Z,17.09
2023-05-02T09:18:54.978Z,17.14
2023-05-02T09:21:42.121Z,17.18
2023-05-02T09:24:34.944Z,17.23
2023-05-02T09:27:04.298Z,17.27
2023-05-02T09:29:37.835Z,17.32
2023-05-02T09:32:05.650Z,17.34
2023-05-02T09:34:32.887Z,17.39
2023-05-02T09:36:59.667Z,17.42
2023-05-02T09:39:30.955Z,17.47
2023-05-02T09:41:58.619Z,17.50
2023-05-02T09:44:27.801Z,17.54
2023-05-02T09:46:57.406Z,17.55
2023-05-02T09:49:46.808Z,17.58
2023-05-02T09:52:15.966Z,17.60
2023-05-02T09:54:43.517Z,17.63
2023-05-02T09:57:11.355Z,17.67
2023-05-02T09:59:39.958Z,17.71
2023-05-02T10:02:09.729Z,17.74
2023-05-02T10:04:37.509Z,17.78
2023-05-02T10:07:06.671Z,17.83
2023-05-02T10:09:36.326Z,17.88
2023-05-02T10:12:05.287Z,17.91
2023-05-02T10:14:35.975Z,17.93
2023-05-02T10:17:12.744Z,17.97
2023-05-02T10:19:52.967Z,18.02
2023-05-02T10:22:20.046Z,18.09
2023-05-02T10:24:49.384Z,18.13
2023-05-02T10:27:16.833Z,18.18
2023-05-02T10:29:44.861Z,18.20
2023-05-02T10:32:12.815Z,18.27
2023-05-02T10:34:41.824Z,18.31
2023-05-02T10:37:08.640Z,18.36
2023-05-02T10:39:35.683Z,18.39
2023-05-02T10:42:04.164Z,18.47
2023-05-02T10:44:38.991Z,18.51
2023-05-02T10:47:25.288Z,18.55
2023-05-02T10:49:57.379Z,18.60
2023-05-02T10:52:35.256Z,18.67
2023-05-02T10:55:25.020Z,18.68
2023-05-02T10:57:57.654Z,18.72
2023-05-02T11:00:34.803Z,18.75
2023-05-02T11:03:02.499Z,18.76
2023-05-02T11:05:29.704Z,18.76
2023-05-02T11:08:15.182Z,18.75
2023-05-02T11:10:42.216Z,18.75
2023-05-02T11:13:09.505Z,18.75
2023-05-02T11:15:42.123Z,18.74
2023-05-02T11:18:13.221Z,18.76
2023-05-02T11:20:44.844Z,18.78
2023-05-02T11:23:15.412Z,18.80
2023-05-02T11:25:48.277Z,18.84
2023-05-02T11:28:36.849Z,18.86
2023-05-02T11:31:07.520Z,18.90
2023-05-02T11:33:34.567Z,18.94
2023-05-02T11:36:01.736Z,18.96
2023-05-02T11:38:39.316Z,18.95
2023-05-02T11:41:06.551Z,18.96
2023-05-02T11:43:33.366Z,18.99
2023-05-02T11:46:01.908Z,19.01
2023-05-02T11:48:30.686Z,19.05
2023-05-02T11:51:05.774Z,19.08
2023-05-02T11:53:33.331Z,19.10
2023-05-02T11:56:04.678Z,19.12
2023-05-02T11:58:33.747Z,19.14
2023-05-02T12:01:14.388Z,19.15
2023-05-02T12:03:41.878Z,19.17
2023-05-02T12:06:19.004Z,19.17
2023-05-02T12:08:46.703Z,19.18
2023-05-02T12:11:18.300Z,19.21
2023-05-02T12:13:47.462Z,19.21
2023-05-02T12:16:14.732Z,19.20
2023-05-02T12:18:41.941Z,19.20
2023-05-02T12:21:09.034Z,19.17
2023-05-02T12:23:37.424Z,19.16
2023-05-02T12:26:31.900Z,19.14
2023-05-02T12:28:59.129Z,19.12
2023-05-02T12:31:28.203Z,19.09
2023-05-02T12:33:57.680Z,19.06
2023-05-02T12:36:25.081Z,19.06
2023-05-02T12:38:55.030Z,19.04
2023-05-02T12:41:51.614Z,19.05
2023-05-02T12:44:36.458Z,19.04
2023-05-02T12:47:03.269Z,19.05
2023-05-02T12:49:30.489Z,19.06
2023-05-02T12:51:58.236Z,19.08
2023-05-02T12:54:26.703Z,19.11
2023-05-02T12:56:53.537Z,19.12
2023-05-02T12:59:28.458Z,19.14
2023-05-02T13:01:55.336Z,19.15
2023-05-02T13:04:22.267Z,19.17
2023-05-02T13:06:49.399Z,19.19
2023-05-02T13:09:17.007Z,19.21
2023-05-02T13:11:43.978Z,19.21
2023-05-02T13:14:11.621Z,19.21
2023-05-02T13:16:38.721Z,19.23
2023-05-02T13:19:05.796Z,19.22
2023-05-02T13:21:32.648Z,19.25
2023-05-02T13:23:59.473Z,19.27
2023-05-02T13:26:26.238Z,19.29
2023-05-02T13:28:53.153Z,19.29
2023-05-02T13:31:19.936Z,19.30
2023-05-02T13:33:46.748Z,19.31
2023-05-02T13:36:13.723Z,19.33
2023-05-02T13:38:40.668Z,19.35
2023-05-02T13:41:14.036Z,19.33
2023-05-02T13:43:40.874Z,19.36
2023-05-02T13:46:07.744Z,19.36
2023-05-02T13:48:34.837Z,19.38
2023-05-02T13:51:01.610Z,19.38
2023-05-02T13:53:28.383Z,19.38
2023-05-02T13:55:55.192Z,19.38
2023-05-02T13:58:22.075Z,19.37
2023-05-02T14:00:48.972Z,19.37
2023-05-02T14:03:17.986Z,19.36
2023-05-02T14:05:44.983Z,19.33
2023-05-02T14:08:12.138Z,19.31
2023-05-02T14:10:39.111Z,19.32
2023-05-02T14:13:05.898Z,19.35
2023-05-02T14:15:32.730Z,19.37
2023-05-02T14:17:59.507Z,19.37
2023-05-02T14:20:26.349Z,19.36
2023-05-02T14:22:53.135Z,19.36
2023-05-02T14:25:20.611Z,19.36
2023-05-02T14:27:47.481Z,19.34
2023-05-02T14:30:14.211Z,19.31
2023-05-02T14:32:41.184Z,19.32
2023-05-02T14:35:08.333Z,19.31
2023-05-02T14:37:35.129Z,19.31
2023-05-02T14:40:02.175Z,19.30
2023-05-02T14:42:29.212Z,19.26
2023-05-02T14:44:58.769Z,19.23
2023-05-02T14:47:33.882Z,19.20
2023-05-02T14:50:01.495Z,19.17
2023-05-02T14:52:28.394Z,19.12
2023-05-02T14:54:55.146Z,19.08
2023-05-02T14:57:22.117Z,19.03
2023-05-02T14:59:48.924Z,18.98
2023-05-02T15:02:15.811Z,18.95
2023-05-02T15:04:42.658Z,18.90
2023-05-02T15:07:09.855Z,18.87
2023-05-02T15:09:36.785Z,18.83
2023-05-02T15:12:03.683Z,18.79
2023-05-02T15:14:30.512Z,18.74
2023-05-02T15:16:57.779Z,18.67
2023-05-02T15:19:28.077Z,18.63
2023-05-02T15:21:57.456Z,18.57
2023-05-02T15:24:24.777Z,18.55
2023-05-02T15:26:52.063Z,18.49
2023-05-02T15:29:19.098Z,18.44
2023-05-02T15:31:45.917Z,18.35
2023-05-02T15:34:12.846Z,18.30
2023-05-02T15:36:40.715Z,18.23
2023-05-02T15:39:07.606Z,18.13
2023-05-02T15:41:34.473Z,18.07
2023-05-02T15:44:01.682Z,17.98
2023-05-02T15:46:28.592Z,17.92
2023-05-02T15:48:55.442Z,17.85
2023-05-02T15:51:22.204Z,17.82
2023-05-02T15:53:52.371Z,17.76
2023-05-02T15:56:21.513Z,17.70
2023-05-02T15:58:48.641Z,17.65
2023-05-02T16:01:15.694Z,17.62
2023-05-02T16:03:42.639Z,17.57
2023-05-02T16:06:10.023Z,17.55
2023-05-02T16:08:36.878Z,17.52
2023-05-02T16:11:03.698Z,17.48
2023-05-02T16:13:30.417Z,17.46
2023-05-02T16:15:57.181Z,17.43
2023-05-02T16:18:28.352Z,17.37
2023-05-02T16:20:57.108Z,17.36
2023-05-02T16:23:24.628Z,17.32
2023-05-02T16:26:00.822Z,17.25
2023-05-02T16:28:27.813Z,17.20
2023-05-02T16:30:55.034Z,17.17
2023-05-02T16:33:22.543Z,17.15
2023-05-02T16:35:49.318Z,17.14
2023-05-02T16:38:16.254Z,17.10
2023-05-02T16:40:43.028Z,17.07
2023-05-02T16:43:09.868Z,17.00
2023-05-02T16:45:36.625Z,16.98
2023-05-02T16:48:04.613Z,16.93
2023-05-02T16:50:31.847Z,16.91
2023-05-02T16:52:58.600Z,16.84
2023-05-02T16:55:25.337Z,16.83
2023-05-02T16:57:52.128Z,16.80
2023-05-02T17:00:19.174Z,16.77
2023-05-02T17:02:46.920Z,16.73
2023-05-02T17:05:13.861Z,16.67
2023-05-02T17:07:40.570Z,16.67
2023-05-02T17:10:08.257Z,16.63
2023-05-02T17:12:35.080Z,16.60
2023-05-02T17:15:03.610Z,16.58
2023-05-02T17:17:31.293Z,16.55
2023-05-02T17:19:58.467Z,16.52
2023-05-02T17:22:26.349Z,16.47
2023-05-02T17:24:54.873Z,16.42
2023-05-02T17:27:21.692Z,16.41
2023-05-02T17:29:48.442Z,16.37
2023-05-02T17:32:15.943Z,16.36
2023-05-02T17:34:45.615Z,16.34
2023-05-02T17:37:12.930Z,16.35
2023-05-02T17:39:39.882Z,16.28
2023-05-02T17:42:07.011Z,16.25
2023-05-02T17:44:36.683Z,16.21
2023-05-02T17:47:04.470Z,16.21
2023-05-02T17:49:31.152Z,16.18
2023-05-02T17:51:58.309Z,16.15
2023-05-02T17:54:25.518Z,16.12
2023-05-02T17:56:52.903Z,16.10
2023-05-02T17:59:20.671Z,16.05
2023-05-02T18:01:47.982Z,16.07
2023-05-02T18:04:19.066Z,16.00
2023-05-02T18:06:46.534Z,15.96
2023-05-02T18:09:13.899Z,15.94
2023-05-02T18:11:41.315Z,15.93
2023-05-02T18:14:08.202Z,15.91
2023-05-02T18:16:36.338Z,15.87
2023-05-02T18:19:03.692Z,15.85
2023-05-02T18:21:34.586Z,15.84
2023-05-02T18:24:02.194Z,15.77
2023-05-02T18:26:29.608Z,15.77
2023-05-02T18:28:57.795Z,15.75
2023-05-02T18:31:24.740Z,15.73
2023-05-02T18:33:54.069Z,15.70
2023-05-02T18:36:26.427Z,15.69
2023-05-02T18:38:53.865Z,15.65
2023-05-02T18:41:21.724Z,15.64
2023-05-02T18:43:50.544Z,15.61
2023-05-02T18:46:17.950Z,15.56
2023-05-02T18:48:45.033Z,15.57
2023-05-02T18:51:12.489Z,15.54
2023-05-02T18:53:39.376Z,15.52
2023-05-02T18:56:13.661Z,15.46
2023-05-02T18:58:42.112Z,15.47
2023-05-02T19:01:16.111Z,15.44
2023-05-02T19:03:44.301Z,15.42
2023-05-02T19:06:12.302Z,15.43
2023-05-02T19:08:41.440Z,15.38
2023-05-02T19:11:09.432Z,15.36
2023-05-02T19:13:36.790Z,15.36
2023-05-02T19:16:05.047Z,15.34
2023-05-02T19:18:32.352Z,15.30
2023-05-02T19:21:00.009Z,15.30
2023-05-02T19:23:27.459Z,15.28
2023-05-02T19:25:55.572Z,15.28
2023-05-02T19:28:23.226Z,15.25
2023-05-02T19:30:51.865Z,15.22
2023-05-02T19:33:19.140Z,15.20
2023-05-02T19:35:46.383Z,15.21
2023-05-02T19:38:13.557Z,15.17
2023-05-02T19:40:40.954Z,15.14
2023-05-02T19:43:08.357Z,15.14
2023-05-02T19:45:35.932Z,15.13
2023-05-02T19:48:03.168Z,15.13
2023-05-02T19:50:30.251Z,15.08
2023-05-02T19:52:58.030Z,15.08
2023-05-02T19:55:24.912Z,15.06
2023-05-02T19:57:51.891Z,15.05
2023-05-02T20:00:19.369Z,15.01
2023-05-02T20:02:49.248Z,15.00
2023-05-02T20:05:18.545Z,14.96
2023-05-02T20:07:47.015Z,14.96
2023-05-02T20:10:15.504Z,14.96
2023-05-02T20:12:46.903Z,14.97
2023-05-02T20:15:16.962Z,14.96
2023-05-02T20:17:44.441Z,14.95
2023-05-02T20:20:12.269Z,14.92
2023-05-02T20:22:41.935Z,14.90
2023-05-02T20:25:11.956Z,14.90
2023-05-02T20:27:39.377Z,14.87
2023-05-02T20:30:11.202Z,14.83
2023-05-02T20:32:38.474Z,14.82
2023-05-02T20:35:05.968Z,14.83
2023-05-02T20:37:32.952Z,14.78
2023-05-02T20:40:00.273Z,14.78
2023-05-02T20:42:27.278Z,14.80
2023-05-02T20:45:01.829Z,14.80
2023-05-02T20:47:30.325Z,14.78
2023-05-02T20:49:57.366Z,14.77
2023-05-02T20:52:24.176Z,14.74
2023-05-02T20:54:54.997Z,14.74
2023-05-02T20:57:22.388Z,14.70
2023-05-02T20:59:49.118Z,14.69
2023-05-02T21:02:16.377Z,14.67
2023-05-02T21:04:43.130Z,14.66
2023-05-02T21:07:09.868Z,14.64
2023-05-02T21:09:36.579Z,14.63
2023-05-02T21:12:03.493Z,14.63
2023-05-02T21:14:30.500Z,14.60
2023-05-02T21:16:57.272Z,14.59
2023-05-02T21:19:24.218Z,14.57
2023-05-02T21:21:51.217Z,14.54
2023-05-02T21:24:18.013Z,14.53
2023-05-02T21:26:45.226Z,14.52
2023-05-02T21:29:13.784Z,14.52
2023-05-02T21:31:40.680Z,14.51
2023-05-02T21:34:07.539Z,14.51
2023-05-02T21:36:34.312Z,14.49
2023-05-02T21:39:01.105Z,14.48
2023-05-02T21:41:27.900Z,14.44
2023-05-02T21:43:54.792Z,14.43
2023-05-02T21:46:21.676Z,14.41
2023-05-02T21:48:49.275Z,14.41
2023-05-02T21:51:16.261Z,14.40
2023-05-02T21:53:43.126Z,14.36
2023-05-02T21:56:10.677Z,14.37
2023-05-02T21:58:37.435Z,14.34
2023-05-02T22:01:04.573Z,14.33
2023-05-02T22:03:33.877Z,14.32
2023-05-02T22:06:06.011Z,14.31
2023-05-02T22:08:33.836Z,14.30
2023-05-02T22:11:00.644Z,14.31
2023-05-02T22:13:27.461Z,14.30
2023-05-02T22:15:54.209Z,14.27
2023-05-02T22:18:21.166Z,14.26
2023-05-02T22:20:48.275Z,14.26
2023-05-02T22:23:15.316Z,14.23
2023-05-02T22:25:44.686Z,14.23
2023-05-02T22:28:12.258Z,14.22
2023-05-02T22:30:40.461Z,14.22
2023-05-02T22:33:07.758Z,14.22
2023-05-02T22:35:34.711Z,14.20
2023-05-02T22:38:05.048Z,14.20
2023-05-02T22:40:32.191Z,14.16
2023-05-02T22:42:59.258Z,14.16
2023-05-02T22:45:27.142Z,14.16
2023-05-02T22:47:53.931Z,14.16
2023-05-02T22:50:21.596Z,14.12
2023-05-02T22:52:49.301Z,14.11
2023-05-02T22:55:16.270Z,14.08
2023-05-02T22:57:43.028Z,14.08
2023-05-02T23:00:10.905Z,14.07
2023-05-02T23:02:38.070Z,14.05
2023-05-02T23:05:06.538Z,14.04
2023-05-02T23:07:33.370Z,14.03
2023-05-02T23:10:00.313Z,14.00
2023-05-02T23:12:28.513Z,14.03
2023-05-02T23:14:55.568Z,14.00
2023-05-02T23:17:23.205Z,13.99
2023-05-02T23:19:50.560Z,14.00
2023-05-02T23:22:17.550Z,13.97
2023-05-02T23:24:47.403Z,13.97
2023-05-02T23:27:14.290Z,13.93
2023-05-02T23:29:41.069Z,13.95
2023-05-02T23:32:08.350Z,13.93
2023-05-02T23:34:38.261Z,13.92
2023-05-02T23:37:06.831Z,13.93
2023-05-02T23:39:33.896Z,13.91
2023-05-02T23:42:03.811Z,13.90
2023-05-02T23:44:31.359Z,13.90
2023-05-02T23:46:59.446Z,13.89
2023-05-02T23:49:26.823Z,13.89
2023-05-02T23:51:53.606Z,13.87
2023-05-02T23:54:20.466Z,13.86
2023-05-02T23:56:47.303Z,13.85
2023-05-02T23:59:14.068Z,13.82
